createdAt,value
2017-09-18T00:01:00.890Z,0
2017-09-18T00:06:06.281Z,0
2017-09-18T00:11:12.002Z,0
2017-09-18T00:16:17.054Z,0
2017-09-18T00:21:22.455Z,0
2017-09-18T00:26:27.709Z,0
2017-09-18T00:31:33.096Z,0
2017-09-18T00:36:38.484Z,0
2017-09-18T00:41:42.870Z,0
2017-09-18T00:46:47.927Z,0
2017-09-18T00:51:51.975Z,0
2017-09-18T00:56:57.034Z,0
2017-09-18T01:02:02.766Z,0
2017-09-18T01:07:08.159Z,0
2017-09-18T01:12:13.211Z,0
2017-09-18T01:17:18.268Z,0
2017-09-18T01:22:23.994Z,0
2017-09-18T01:27:28.709Z,0
2017-09-18T01:32:33.432Z,0
2017-09-18T01:37:38.819Z,0
2017-09-18T01:42:43.873Z,0
2017-09-18T01:47:48.260Z,0
2017-09-18T01:52:53.989Z,0
2017-09-18T01:57:59.046Z,0
2017-09-18T02:03:04.772Z,0
2017-09-18T02:08:10.164Z,0
2017-09-18T02:13:15.892Z,0
2017-09-18T02:18:20.613Z,0
2017-09-18T02:23:26.006Z,0
2017-09-18T02:28:31.064Z,0
2017-09-18T02:33:36.461Z,0
2017-09-18T02:38:41.510Z,0
2017-09-18T02:43:47.239Z,0
2017-09-18T02:48:52.960Z,0
2017-09-18T02:53:57.679Z,0
2017-09-18T02:59:03.072Z,0
2017-09-18T03:04:07.462Z,0
2017-09-18T03:09:13.186Z,0
2017-09-18T03:14:17.913Z,0
2017-09-18T03:19:22.964Z,0
2017-09-18T03:24:28.352Z,0
2017-09-18T03:29:33.744Z,0
2017-09-18T03:34:38.800Z,0
2017-09-18T03:39:44.193Z,0
2017-09-18T03:44:49.919Z,0
2017-09-18T03:49:55.644Z,0
2017-09-18T03:55:01.037Z,0
2017-09-18T04:00:06.426Z,0
2017-09-18T04:05:11.156Z,0
2017-09-18T04:10:16.541Z,0
2017-09-18T04:15:22.270Z,0
2017-09-18T04:20:27.999Z,0
2017-09-18T04:25:32.725Z,0
2017-09-18T04:30:38.450Z,0
2017-09-18T04:35:43.506Z,1
2017-09-18T04:40:48.225Z,2
2017-09-18T04:45:53.626Z,3
2017-09-18T04:50:59.354Z,6
2017-09-18T04:56:04.746Z,9
2017-09-18T05:01:09.131Z,18
2017-09-18T05:06:14.876Z,31
2017-09-18T05:11:20.270Z,51
2017-09-18T05:16:25.005Z,78
2017-09-18T05:21:30.400Z,106
2017-09-18T05:26:35.455Z,156
2017-09-18T05:31:40.523Z,217
2017-09-18T05:36:45.955Z,194
2017-09-18T05:41:50.679Z,244
2017-09-18T05:46:56.405Z,389
2017-09-18T05:52:01.130Z,403
2017-09-18T05:57:07.189Z,396
2017-09-18T06:02:12.916Z,347
2017-09-18T06:07:18.647Z,363
2017-09-18T06:12:24.380Z,402
2017-09-18T06:17:29.103Z,518
2017-09-18T06:22:34.837Z,612
2017-09-18T06:27:40.228Z,709
2017-09-18T06:32:44.956Z,798
2017-09-18T06:37:50.344Z,853
2017-09-18T06:42:55.735Z,859
2017-09-18T06:48:01.131Z,721
2017-09-18T06:53:06.524Z,511
2017-09-18T06:58:11.245Z,480
2017-09-18T07:03:16.305Z,856
2017-09-18T07:08:21.563Z,1148
2017-09-18T07:13:26.966Z,1402
2017-09-18T07:18:31.354Z,2047
2017-09-18T07:23:36.755Z,1856
2017-09-18T07:28:42.151Z,3399
2017-09-18T07:33:47.877Z,2203
2017-09-18T07:38:53.275Z,4448
2017-09-18T07:43:59.013Z,7283
2017-09-18T07:49:05.093Z,8203
2017-09-18T07:54:10.163Z,9919
2017-09-18T07:59:15.560Z,10672
2017-09-18T08:04:21.294Z,11776
2017-09-18T08:09:27.366Z,11420
2017-09-18T08:14:31.765Z,11219
2017-09-18T08:19:36.836Z,16016
2017-09-18T08:24:42.572Z,7543
2017-09-18T08:29:48.315Z,5338
2017-09-18T08:34:53.386Z,4474
2017-09-18T08:39:58.799Z,3847
2017-09-18T08:45:03.872Z,4405
2017-09-18T08:50:08.608Z,29744
2017-09-18T08:55:14.351Z,4690
2017-09-18T09:00:18.749Z,11322
2017-09-18T09:05:24.153Z,45072
2017-09-18T09:10:29.903Z,50536
2017-09-18T09:15:34.968Z,53464
2017-09-18T09:20:40.038Z,44512
2017-09-18T09:25:44.777Z,46752
2017-09-18T09:30:49.849Z,43232
2017-09-18T09:35:55.268Z,38592
2017-09-18T09:41:01.011Z,46816
2017-09-18T09:46:05.414Z,4403
2017-09-18T09:51:09.819Z,6259
2017-09-18T09:56:15.565Z,4496
2017-09-18T10:01:20.638Z,3807
2017-09-18T10:06:26.379Z,3824
2017-09-18T10:11:32.122Z,3081
2017-09-18T10:16:37.862Z,3597
2017-09-18T10:21:43.270Z,3262
2017-09-18T10:26:48.012Z,3489
2017-09-18T10:31:53.416Z,3203
2017-09-18T10:36:59.151Z,2747
2017-09-18T10:42:03.546Z,3324
2017-09-18T10:47:08.949Z,3442
2017-09-18T10:52:15.016Z,2517
2017-09-18T10:57:20.417Z,3129
2017-09-18T11:02:25.817Z,2781
2017-09-18T11:07:30.879Z,2857
2017-09-18T11:12:35.276Z,2544
2017-09-18T11:17:40.005Z,1761
2017-09-18T11:22:45.740Z,2230
2017-09-18T11:27:50.137Z,1939
2017-09-18T11:32:55.205Z,1448
2017-09-18T11:38:00.959Z,1241
2017-09-18T11:43:06.668Z,879
2017-09-18T11:48:12.405Z,1118
2017-09-18T11:53:17.808Z,1251
2017-09-18T11:58:22.880Z,1358
2017-09-18T12:03:27.620Z,1770
2017-09-18T12:08:33.375Z,2251
2017-09-18T12:13:38.113Z,2271
2017-09-18T12:18:43.513Z,1266
2017-09-18T12:23:48.580Z,1158
2017-09-18T12:28:54.656Z,1256
2017-09-18T12:33:59.725Z,1132
2017-09-18T12:39:04.460Z,1018
2017-09-18T12:44:09.186Z,884
2017-09-18T12:49:14.250Z,1109
2017-09-18T12:54:19.656Z,700
2017-09-18T12:59:24.725Z,699
2017-09-18T13:04:29.452Z,1273
2017-09-18T13:09:34.851Z,1734
2017-09-18T13:14:40.593Z,1857
2017-09-18T13:19:46.328Z,1696
2017-09-18T13:24:51.759Z,1530
2017-09-18T13:29:57.550Z,1375
2017-09-18T13:35:02.989Z,1175
2017-09-18T13:40:07.784Z,1096
2017-09-18T13:45:13.525Z,1000
2017-09-18T13:50:19.257Z,919
2017-09-18T13:55:24.332Z,796
2017-09-18T14:00:30.062Z,758
2017-09-18T14:05:35.481Z,606
2017-09-18T14:10:40.547Z,612
2017-09-18T14:15:45.610Z,399
2017-09-18T14:20:51.342Z,388
2017-09-18T14:25:56.402Z,410
2017-09-18T14:31:01.471Z,465
2017-09-18T14:36:06.869Z,448
2017-09-18T14:41:12.613Z,445
2017-09-18T14:46:18.012Z,409
2017-09-18T14:51:23.452Z,385
2017-09-18T14:56:28.841Z,335
2017-09-18T15:01:34.573Z,337
2017-09-18T15:06:39.972Z,394
2017-09-18T15:11:44.699Z,400
2017-09-18T15:16:50.100Z,497
2017-09-18T15:21:56.178Z,464
2017-09-18T15:27:01.916Z,328
2017-09-18T15:32:07.005Z,465
2017-09-18T15:37:11.744Z,530
2017-09-18T15:42:16.808Z,473
2017-09-18T15:47:21.873Z,382
2017-09-18T15:52:27.270Z,352
2017-09-18T15:57:32.002Z,344
2017-09-18T16:02:37.060Z,334
2017-09-18T16:07:42.794Z,300
2017-09-18T16:12:47.524Z,265
2017-09-18T16:17:51.950Z,236
2017-09-18T16:22:57.351Z,219
2017-09-18T16:28:03.417Z,198
2017-09-18T16:33:08.482Z,188
2017-09-18T16:38:13.212Z,163
2017-09-18T16:43:17.943Z,137
2017-09-18T16:48:23.344Z,97
2017-09-18T16:53:29.086Z,80
2017-09-18T16:58:34.147Z,68
2017-09-18T17:03:39.212Z,54
2017-09-18T17:08:43.947Z,31
2017-09-18T17:13:49.010Z,18
2017-09-18T17:18:54.421Z,12
2017-09-18T17:23:59.156Z,8
2017-09-18T17:29:04.888Z,4
2017-09-18T17:34:09.955Z,2
2017-09-18T17:39:14.738Z,1
2017-09-18T17:44:20.144Z,0
2017-09-18T17:49:25.218Z,0
2017-09-18T17:54:30.612Z,0
2017-09-18T17:59:35.004Z,0
2017-09-18T18:04:39.730Z,0
2017-09-18T18:09:44.462Z,0
2017-09-18T18:14:49.524Z,0
2017-09-18T18:19:54.918Z,0
2017-09-18T18:25:00.384Z,1
2017-09-18T18:30:06.149Z,1
2017-09-18T18:35:11.216Z,1
2017-09-18T18:40:16.620Z,1
2017-09-18T18:45:22.810Z,1
2017-09-18T18:50:27.870Z,0
2017-09-18T18:55:33.275Z,0
2017-09-18T19:00:38.344Z,0
2017-09-18T19:05:43.082Z,0
2017-09-18T19:10:47.815Z,0
2017-09-18T19:15:53.893Z,0
2017-09-18T19:20:58.980Z,0
2017-09-18T19:26:04.381Z,0
2017-09-18T19:31:09.450Z,0
2017-09-18T19:36:15.190Z,0
2017-09-18T19:41:20.620Z,0
2017-09-18T19:46:26.037Z,0
2017-09-18T19:51:31.124Z,0
2017-09-18T19:56:35.876Z,0
2017-09-18T20:01:41.616Z,0
2017-09-18T20:06:46.691Z,0
2017-09-18T20:11:51.427Z,0
2017-09-18T20:16:56.840Z,0
2017-09-18T20:22:02.242Z,0
2017-09-18T20:27:07.312Z,0
2017-09-18T20:32:13.048Z,0
2017-09-18T20:37:17.777Z,0
2017-09-18T20:42:23.175Z,0
2017-09-18T20:47:28.454Z,0
2017-09-18T20:52:33.857Z,0
2017-09-18T20:57:38.925Z,0
2017-09-18T21:02:44.318Z,0
2017-09-18T21:07:49.372Z,0
2017-09-18T21:12:54.432Z,0
2017-09-18T21:17:58.821Z,0
2017-09-18T21:23:04.214Z,0
2017-09-18T21:28:08.934Z,0
2017-09-18T21:33:13.995Z,0
2017-09-18T21:38:19.727Z,0
2017-09-18T21:43:24.795Z,0
2017-09-18T21:48:29.520Z,0
2017-09-18T21:53:34.913Z,0
2017-09-18T21:58:39.645Z,0
2017-09-18T22:03:45.041Z,0
2017-09-18T22:08:49.765Z,0
2017-09-18T22:13:54.499Z,0
2017-09-18T22:18:59.941Z,0
2017-09-18T22:24:04.668Z,0
2017-09-18T22:29:10.399Z,0
2017-09-18T22:34:15.456Z,0
2017-09-18T22:39:20.188Z,0
2017-09-18T22:44:25.249Z,0
2017-09-18T22:49:30.313Z,0
2017-09-18T22:54:35.711Z,0
2017-09-18T22:59:41.113Z,0
2017-09-18T23:04:46.173Z,0
2017-09-18T23:09:51.570Z,0
2017-09-18T23:14:57.300Z,0
2017-09-18T23:20:02.025Z,0
2017-09-18T23:25:06.756Z,0
2017-09-18T23:30:12.148Z,0
2017-09-18T23:35:17.878Z,0
2017-09-18T23:40:23.282Z,0
2017-09-18T23:45:28.341Z,0
2017-09-18T23:50:34.080Z,0
2017-09-18T23:55:39.813Z,0
